Overview Statistics Trail Chart Weather Telemetry Raw packets
 

This is the latest recevied weather packets stored in our database for station/object Dunnningn. If no packets are shown the sender has not sent any weather packets the latest 10 day(s).

<< 15 16 17 18 19 >>
Time Temp. Humidity Pressure Rain* Wind** Luminosity Snow
1787871732 22.22° C 72% 1009.7 hPa 0 mm - - -
1787869931 22.22° C 72% 1009.9 hPa 0 mm - - -
1787866332 23.33° C 70% 1010.2 hPa 0 mm - - -
1787864531 23.33° C 69% 1010 hPa 0 mm - - -
1787862731 23.89° C 67% 1009.9 hPa 0 mm - - -
1787860931 25° C 63% 1009.8 hPa 0 mm - - -
1787859131 25.56° C 57% 1010 hPa 0 mm - - -
1787857331 26.11° C 55% 1010.4 hPa 0 mm - - -
1787855530 27.22° C 51% 1010.3 hPa 0 mm - - -
1787853731 27.78° C 48% 1010.2 hPa 0 mm - - -
1787851930 28.89° C 45% 1010.5 hPa 0 mm - - -
1787850130 29.44° C 44% 1010.8 hPa 0 mm - - -
1787848331 30° C 41% 1011.2 hPa 0 mm - - -
1787846530 31.11° C 37% 1011.3 hPa 0 mm - - -
1787844731 31.67° C 35% 1011.3 hPa 0 mm - - -
1787842931 31.67° C 34% 1011.2 hPa 0 mm - - -
1787841132 31.67° C 33% 1011 hPa 0 mm - - -
1787839332 31.67° C 33% 1010.9 hPa 0 mm - - -
1787837531 31.67° C 34% 1011 hPa 0 mm - - -
1787835730 31.67° C 35% 1011.2 hPa 0 mm - - -
1787833930 31.67° C 34% 1011.4 hPa 0 mm - - -
1787832131 31.67° C 36% 1011.7 hPa 0 mm - - -
1787830330 31.11° C 35% 1012.2 hPa 0 mm - - -
1787828530 30.56° C 35% 1012.5 hPa 0 mm - - -
1787826730 28.89° C 42% 1012.7 hPa 0 mm - - -

* Rain since midnight (hover to see other rain measurements)
** Current wind speed in m/s (hover to see current wind gust speed)